Time;durP1;ratioP1;P1;durP2;ratioP2;P2;SDS_P1;SDS_P2;PMS_P1;PMS_P2;Temp;Humidity;BMP_temperature;BMP_pressure;BME280_temperature;BME280_humidity;BME280_pressure;Samples;Min_cycle;Max_cycle;Signal;HPM_P1;HPM_P2
2023/06/07 00:23:05;;;;;;;;;;;;;;;16.63;60.76;101995.69;4938542;28;19930;-68
2023/06/07 00:25:30;;;;;;;;;;;;;;;16.61;60.69;101994.22;4941013;28;19927;-69
2023/06/07 00:27:55;;;;;;;;;;;;;;;16.59;60.91;102002.44;4938236;28;21279;-69
2023/06/07 00:30:20;;;;;;;;;;;;;;;16.56;61.25;101997.44;4941376;28;20029;-68
2023/06/07 00:32:46;;;;;;;;;;;;;;;16.54;61.27;101993.28;4941589;28;19919;-68
2023/06/07 00:35:11;;;;;;;;;;;;;;;16.51;60.93;101988.28;4935471;28;19970;-68
2023/06/07 00:37:36;;;;;;;;;;;;;;;16.50;61.38;101989.28;4938943;28;19997;-68
2023/06/07 00:40:03;;;;;;;;;;;;;;;16.46;61.53;101991.47;4940380;28;19946;-68
2023/06/07 00:42:28;;;;;;;;;;;;;;;16.40;61.51;101990.38;4942004;28;20042;-66
2023/06/07 00:44:53;;;;;;;;;;;;;;;16.37;61.29;102004.13;4943134;28;20013;-67
2023/06/07 00:47:19;;;;;;;;;;;;;;;16.34;61.72;101996.44;4934538;28;19922;-67
2023/06/07 00:49:44;;;;;;;;;;;;;;;16.33;61.57;101988.59;4937769;28;19977;-67
2023/06/07 00:52:10;;;;;;;;;;;;;;;16.31;61.37;101990.63;4941467;28;19918;-68
2023/06/07 00:54:35;;;;;;;;;;;;;;;16.28;61.54;101993.66;4942832;28;20513;-68
2023/06/07 00:57:00;;;;;;;;;;;;;;;16.26;61.36;101993.84;4938185;28;20017;-66
2023/06/07 00:59:26;;;;;;;;;;;;;;;16.22;61.40;101989.03;4933012;28;19938;-68
2023/06/07 01:01:51;;;;;;;;;;;;;;;16.20;61.53;101994.56;4939958;28;19961;-67
2023/06/07 01:04:19;;;;;;;;;;;;;;;16.17;61.64;101986.84;4942999;28;19922;-67
2023/06/07 01:06:44;;;;;;;;;;;;;;;16.14;62.02;101989.91;4944216;28;19965;-67
2023/06/07 01:09:13;;;;;;;;;;;;;;;16.09;61.91;101993.13;4938583;28;19962;-67
2023/06/07 01:11:40;;;;;;;;;;;;;;;16.05;62.00;101997.19;4941010;28;19941;-66
2023/06/07 01:14:06;;;;;;;;;;;;;;;16.03;61.91;102006.41;4944423;28;19928;-67
2023/06/07 01:16:31;;;;;;;;;;;;;;;15.99;62.32;101992.53;4939793;28;19919;-68
2023/06/07 01:18:56;;;;;;;;;;;;;;;15.96;62.11;101992.06;4952208;28;19923;-68
2023/06/07 01:21:22;;;;;;;;;;;;;;;15.93;62.38;101993.25;4942181;28;19946;-67
2023/06/07 01:23:50;;;;;;;;;;;;;;;15.89;62.36;101988.41;4935182;28;19915;-67
2023/06/07 01:26:16;;;;;;;;;;;;;;;15.85;62.43;101987.91;4938468;28;19923;-68
2023/06/07 01:28:44;;;;;;;;;;;;;;;15.83;62.83;101986.44;4938196;28;20017;-67
2023/06/07 01:31:10;;;;;;;;;;;;;;;15.79;62.84;101984.13;4940768;28;19927;-68
2023/06/07 01:33:35;;;;;;;;;;;;;;;15.76;62.65;101981.78;4942269;28;19976;-68
2023/06/07 01:36:01;;;;;;;;;;;;;;;15.74;62.56;101981.13;4944042;28;19969;-68
2023/06/07 01:38:27;;;;;;;;;;;;;;;15.71;62.91;101976.13;4943863;28;19980;-68
2023/06/07 01:40:53;;;;;;;;;;;;;;;15.68;62.80;101970.31;4945933;28;19922;-69
2023/06/07 01:43:18;;;;;;;;;;;;;;;15.66;62.93;101983.03;4941892;28;19954;-68
2023/06/07 01:45:44;;;;;;;;;;;;;;;15.62;63.30;101985.22;4946804;28;19918;-69
2023/06/07 01:48:09;;;;;;;;;;;;;;;15.59;63.16;101982.88;4940107;29;20477;-67
2023/06/07 01:50:35;;;;;;;;;;;;;;;15.55;63.19;101984.22;4940973;28;20038;-69
2023/06/07 01:53:00;;;;;;;;;;;;;;;15.52;63.19;101978.38;4948413;28;19926;-68
2023/06/07 01:55:26;;;;;;;;;;;;;;;15.49;63.28;101980.41;4937284;28;19985;-67
2023/06/07 01:57:56;;;;;;;;;;;;;;;15.46;63.72;101979.91;4939930;28;19926;-68
2023/06/07 02:00:25;;;;;;;;;;;;;;;15.40;63.60;101964.56;4934039;28;20589;-68
2023/06/07 02:02:56;;;;;;;;;;;;;;;15.37;63.70;101970.25;4946272;28;19919;-69
2023/06/07 02:05:25;;;;;;;;;;;;;;;15.32;64.11;101975.28;4948176;28;19928;-68
2023/06/07 02:07:51;;;;;;;;;;;;;;;15.28;63.59;101969.44;4938719;28;19923;-68
2023/06/07 02:10:17;;;;;;;;;;;;;;;15.24;63.75;101973.47;4935848;28;20439;-68
2023/06/07 02:12:42;;;;;;;;;;;;;;;15.21;64.15;101970.31;4947224;28;19918;-67
2023/06/07 02:15:08;;;;;;;;;;;;;;;15.16;64.42;101971.69;4932358;28;19988;-67
2023/06/07 02:17:34;;;;;;;;;;;;;;;15.12;64.26;101974.88;4941210;28;19923;-68
2023/06/07 02:20:00;;;;;;;;;;;;;;;15.09;64.31;101972.53;4942166;28;20360;-67
2023/06/07 02:22:25;;;;;;;;;;;;;;;15.05;64.38;101972.06;4941546;28;20403;-67
2023/06/07 02:24:50;;;;;;;;;;;;;;;15.03;64.68;101970.53;4948185;28;19923;-67
2023/06/07 02:27:16;;;;;;;;;;;;;;;15.00;64.39;101966.38;4941973;28;20459;-66
2023/06/07 02:29:41;;;;;;;;;;;;;;;14.98;64.62;101970.22;4941864;28;19919;-67
2023/06/07 02:32:06;;;;;;;;;;;;;;;14.94;64.92;101969.72;4939423;28;20476;-67
2023/06/07 02:34:36;;;;;;;;;;;;;;;14.88;64.83;101971.25;4943274;28;19922;-68
2023/06/07 02:37:01;;;;;;;;;;;;;;;14.77;64.89;101966.28;4945746;28;20009;-67
2023/06/07 02:39:26;;;;;;;;;;;;;;;14.84;65.04;101972.59;4938879;28;20002;-67
2023/06/07 02:41:51;;;;;;;;;;;;;;;14.82;65.52;101973.78;4943971;28;19926;-67
2023/06/07 02:44:16;;;;;;;;;;;;;;;14.80;65.30;101973.13;4938151;28;19918;-67
2023/06/07 02:46:41;;;;;;;;;;;;;;;14.78;65.41;101975.13;4933190;28;19927;-68
2023/06/07 02:49:07;;;;;;;;;;;;;;;14.76;65.56;101977.16;4937974;28;19918;-67
2023/06/07 02:51:32;;;;;;;;;;;;;;;14.70;65.64;101975.97;4938737;28;19932;-68
2023/06/07 02:53:57;;;;;;;;;;;;;;;14.68;65.98;101977.13;4942134;28;20377;-67
2023/06/07 02:56:28;;;;;;;;;;;;;;;14.66;65.99;101977.31;4937779;28;20348;-68
2023/06/07 02:58:54;;;;;;;;;;;;;;;14.67;65.88;101978.16;4941332;28;19978;-68
2023/06/07 03:01:21;;;;;;;;;;;;;;;14.66;65.67;101979.16;4935758;28;19918;-68
2023/06/07 03:03:47;;;;;;;;;;;;;;;14.64;65.83;101976.66;4936731;28;20729;-68
2023/06/07 03:06:15;;;;;;;;;;;;;;;14.61;65.96;101971.66;4934554;28;20477;-68
2023/06/07 03:08:40;;;;;;;;;;;;;;;14.59;66.16;101981.66;4936891;28;19918;-68
2023/06/07 03:11:05;;;;;;;;;;;;;;;14.57;66.38;101973.81;4935030;28;20411;-68
2023/06/07 03:13:30;;;;;;;;;;;;;;;14.56;66.28;101976.66;4940254;28;20021;-68
2023/06/07 03:15:55;;;;;;;;;;;;;;;14.51;66.27;101979.84;4946773;28;19937;-68
2023/06/07 03:18:21;;;;;;;;;;;;;;;14.50;66.94;101983.53;4938544;28;19974;-68
2023/06/07 03:20:47;;;;;;;;;;;;;;;14.48;66.53;101979.34;4942012;28;19941;-68
2023/06/07 03:23:12;;;;;;;;;;;;;;;14.48;66.60;101976.69;4940535;28;20013;-68
2023/06/07 03:25:38;;;;;;;;;;;;;;;14.46;66.73;101976.03;4940889;28;20009;-68
2023/06/07 03:28:03;;;;;;;;;;;;;;;14.43;66.66;101982.50;4933419;28;20416;-68
2023/06/07 03:30:28;;;;;;;;;;;;;;;14.40;66.89;101981.97;4936173;28;20014;-68
2023/06/07 03:32:53;;;;;;;;;;;;;;;14.39;67.25;101985.66;4939804;28;19930;-68
2023/06/07 03:35:19;;;;;;;;;;;;;;;14.37;66.87;101982.31;4946390;28;20406;-66
2023/06/07 03:37:44;;;;;;;;;;;;;;;14.37;67.02;101985.00;4937213;28;19926;-67
2023/06/07 03:40:10;;;;;;;;;;;;;;;14.37;67.24;101976.97;4948792;28;19915;-65
2023/06/07 03:42:35;;;;;;;;;;;;;;;14.30;67.04;101978.66;4945392;28;19914;-66
2023/06/07 03:45:00;;;;;;;;;;;;;;;14.37;67.39;101995.69;4943891;28;20010;-67
2023/06/07 03:47:26;;;;;;;;;;;;;;;14.36;67.56;101989.50;4935482;28;20097;-67
2023/06/07 03:49:51;;;;;;;;;;;;;;;14.35;67.76;101978.97;4942894;28;19977;-66
2023/06/07 03:52:16;;;;;;;;;;;;;;;14.35;67.67;101990.50;4933058;28;19935;-66
2023/06/07 03:54:41;;;;;;;;;;;;;;;14.33;67.59;101984.50;4943421;28;20387;-67
2023/06/07 03:57:07;;;;;;;;;;;;;;;14.31;67.50;101993.69;4945654;28;20026;-67
2023/06/07 03:59:32;;;;;;;;;;;;;;;14.28;67.44;101992.19;4941584;28;19919;-67
2023/06/07 04:01:57;;;;;;;;;;;;;;;14.26;67.74;101987.00;4938450;28;20407;-67
2023/06/07 04:04:27;;;;;;;;;;;;;;;14.26;68.15;101988.84;4936902;28;20316;-68
2023/06/07 04:06:53;;;;;;;;;;;;;;;14.25;67.69;101984.50;4948558;28;19919;-68
2023/06/07 04:09:19;;;;;;;;;;;;;;;14.24;68.09;101986.34;4939867;28;20386;-68
2023/06/07 04:11:45;;;;;;;;;;;;;;;14.24;67.91;101985.50;4940792;28;19973;-68
2023/06/07 04:14:10;;;;;;;;;;;;;;;14.25;68.19;101987.16;4940870;28;19923;-67
2023/06/07 04:16:35;;;;;;;;;;;;;;;14.23;68.19;101986.50;4935823;28;19922;-68
2023/06/07 04:19:00;;;;;;;;;;;;;;;14.23;67.98;101992.69;4940615;28;20023;-68
2023/06/07 04:21:25;;;;;;;;;;;;;;;14.23;68.10;101991.84;4932367;28;19919;-68
2023/06/07 04:23:50;;;;;;;;;;;;;;;14.24;67.99;101996.19;4936592;28;19919;-68
2023/06/07 04:26:18;;;;;;;;;;;;;;;14.24;68.29;101990.84;4941500;28;20125;-68
2023/06/07 04:28:45;;;;;;;;;;;;;;;14.25;68.20;101987.16;4931629;28;19918;-68
2023/06/07 04:31:12;;;;;;;;;;;;;;;14.25;68.16;101985.34;4934855;28;19954;-67
2023/06/07 04:33:38;;;;;;;;;;;;;;;14.26;68.23;101986.16;4938032;28;20388;-68
2023/06/07 04:36:03;;;;;;;;;;;;;;;14.26;68.35;101986.16;4940053;28;19922;-68
2023/06/07 04:38:29;;;;;;;;;;;;;;;14.26;68.46;101986.16;4938664;28;19918;-67
2023/06/07 04:40:54;;;;;;;;;;;;;;;14.27;68.55;101993.19;4940221;28;19973;-67
2023/06/07 04:43:20;;;;;;;;;;;;;;;14.26;68.25;101997.69;4932828;28;19915;-68
2023/06/07 04:45:54;;;;;;;;;;;;;;;14.27;68.42;101998.53;4942534;28;19915;-68
2023/06/07 04:48:28;;;;;;;;;;;;;;;14.26;68.24;101988.84;4942371;28;19918;-68
2023/06/07 04:50:56;;;;;;;;;;;;;;;14.26;68.68;101996.84;4947663;28;20593;-68
2023/06/07 04:53:21;;;;;;;;;;;;;;;14.27;68.46;102002.03;4943338;28;19923;-68
2023/06/07 04:55:47;;;;;;;;;;;;;;;14.27;68.86;102002.03;4940996;28;19919;-67
2023/06/07 04:58:15;;;;;;;;;;;;;;;14.30;68.44;102008.03;4934478;28;20241;-68
2023/06/07 05:00:40;;;;;;;;;;;;;;;14.30;68.89;102006.22;4940324;28;19919;-68
2023/06/07 05:03:08;;;;;;;;;;;;;;;14.31;68.48;102005.22;4940980;28;22069;-68
2023/06/07 05:05:34;;;;;;;;;;;;;;;14.33;68.51;101997.84;4947510;28;19982;-68
2023/06/07 05:07:59;;;;;;;;;;;;;;;14.35;68.51;101995.00;4936780;28;20358;-67
2023/06/07 05:10:25;;;;;;;;;;;;;;;14.35;68.62;101993.19;4946779;28;19923;-68
2023/06/07 05:12:50;;;;;;;;;;;;;;;14.38;68.89;101992.84;4936271;28;19925;-68
2023/06/07 05:15:15;;;;;;;;;;;;;;;14.39;68.53;101997.19;4942011;28;19923;-67
2023/06/07 05:17:40;;;;;;;;;;;;;;;14.44;68.37;101994.88;4945542;28;19949;-68
2023/06/07 05:20:10;;;;;;;;;;;;;;;14.46;68.64;101990.22;4941344;28;20017;-68
2023/06/07 05:22:35;;;;;;;;;;;;;;;14.48;68.56;102000.75;4935551;28;19915;-68
2023/06/07 05:25:00;;;;;;;;;;;;;;;14.50;68.56;101999.56;4938933;28;19925;-68
2023/06/07 05:27:25;;;;;;;;;;;;;;;14.51;68.75;102006.59;4941995;28;19926;-68
2023/06/07 05:29:50;;;;;;;;;;;;;;;14.53;68.50;102014.44;4934415;28;19923;-68
2023/06/07 05:32:15;;;;;;;;;;;;;;;14.54;68.14;102008.09;4940058;28;19992;-67
2023/06/07 05:34:42;;;;;;;;;;;;;;;14.54;68.44;102005.41;4949615;28;20053;-68
2023/06/07 05:37:07;;;;;;;;;;;;;;;14.56;68.51;102006.06;4940242;28;20009;-68
2023/06/07 05:39:32;;;;;;;;;;;;;;;14.58;68.14;102006.75;4945138;28;20014;-68
2023/06/07 05:41:58;;;;;;;;;;;;;;;14.59;68.46;102010.25;4941966;28;19919;-68
2023/06/07 05:44:23;;;;;;;;;;;;;;;14.58;68.16;102009.41;4938040;28;19918;-68
2023/06/07 05:46:48;;;;;;;;;;;;;;;14.60;67.92;102015.44;4944302;28;19914;-68
2023/06/07 05:49:13;;;;;;;;;;;;;;;14.64;68.39;102016.75;4947334;28;19918;-68
2023/06/07 05:51:38;;;;;;;;;;;;;;;14.67;68.24;102010.22;4941082;28;19918;-68
2023/06/07 05:54:05;;;;;;;;;;;;;;;14.73;68.27;102014.91;4944596;28;20679;-68
2023/06/07 05:56:30;;;;;;;;;;;;;;;14.77;68.23;102008.25;4943810;28;19923;-67
2023/06/07 05:58:56;;;;;;;;;;;;;;;14.81;68.24;102015.75;4941257;28;21810;-68
2023/06/07 06:01:21;;;;;;;;;;;;;;;14.83;67.99;102012.91;4945190;28;20323;-68
2023/06/07 06:03:46;;;;;;;;;;;;;;;14.87;67.88;102017.72;4947186;28;19986;-68
2023/06/07 06:06:13;;;;;;;;;;;;;;;14.89;68.04;102022.91;4947972;28;20005;-68
2023/06/07 06:08:38;;;;;;;;;;;;;;;14.92;67.86;102024.41;4943676;28;19938;-67
2023/06/07 06:11:03;;;;;;;;;;;;;;;14.96;67.50;102023.06;4934441;28;19915;-66
2023/06/07 06:13:30;;;;;;;;;;;;;;;14.97;67.44;102017.53;4938605;28;21605;-68
2023/06/07 06:15:55;;;;;;;;;;;;;;;14.99;67.47;102015.53;4939944;28;19915;-69
2023/06/07 06:18:20;;;;;;;;;;;;;;;15.02;67.40;102020.53;4936898;28;19970;-67
2023/06/07 06:20:46;;;;;;;;;;;;;;;15.07;67.54;102028.06;4946323;28;19921;-68
2023/06/07 06:23:11;;;;;;;;;;;;;;;15.09;67.42;102034.09;4943052;28;19926;-68
2023/06/07 06:25:36;;;;;;;;;;;;;;;15.12;67.56;102031.91;4943535;28;19957;-67
2023/06/07 06:28:02;;;;;;;;;;;;;;;15.17;67.25;102037.56;4951276;28;19914;-68
2023/06/07 06:30:27;;;;;;;;;;;;;;;15.23;67.09;102036.03;4940601;28;19915;-67
2023/06/07 06:32:52;;;;;;;;;;;;;;;15.30;67.33;102038.84;4946717;28;20407;-68
2023/06/07 06:35:17;;;;;;;;;;;;;;;15.36;67.26;102031.00;4939778;28;19918;-68
2023/06/07 06:37:42;;;;;;;;;;;;;;;15.44;66.85;102030.13;4948504;28;19922;-66
2023/06/07 06:40:08;;;;;;;;;;;;;;;15.55;67.02;102039.59;4944143;28;19978;-68
2023/06/07 06:42:33;;;;;;;;;;;;;;;15.59;66.50;102036.44;4938891;28;19926;-68
2023/06/07 06:44:58;;;;;;;;;;;;;;;15.66;66.38;102045.47;4944929;28;19996;-68
2023/06/07 06:47:25;;;;;;;;;;;;;;;15.70;66.36;102052.13;4941662;28;20013;-68
2023/06/07 06:49:51;;;;;;;;;;;;;;;15.75;66.04;102049.75;4942506;28;20387;-68
2023/06/07 06:52:16;;;;;;;;;;;;;;;15.79;66.45;102053.75;4937136;28;20389;-68
2023/06/07 06:54:41;;;;;;;;;;;;;;;15.84;66.19;102045.19;4945497;28;20029;-67
2023/06/07 06:57:08;;;;;;;;;;;;;;;15.89;65.71;102048.16;4932459;28;20005;-67
2023/06/07 06:59:33;;;;;;;;;;;;;;;15.91;65.83;102046.19;4942505;28;19942;-67
2023/06/07 07:01:59;;;;;;;;;;;;;;;15.92;65.69;102052.38;4939472;28;19960;-68
2023/06/07 07:04:25;;;;;;;;;;;;;;;15.91;65.45;102062.25;4940123;28;20304;-68
2023/06/07 07:06:50;;;;;;;;;;;;;;;15.91;65.66;102054.22;4940378;28;20018;-67
2023/06/07 07:09:16;;;;;;;;;;;;;;;15.92;65.20;102057.72;4932115;28;19923;-67
2023/06/07 07:11:41;;;;;;;;;;;;;;;15.92;65.36;102053.19;4935201;28;19926;-67
2023/06/07 07:14:06;;;;;;;;;;;;;;;15.93;64.96;102062.91;4941931;28;19926;-68
2023/06/07 07:16:31;;;;;;;;;;;;;;;15.93;64.95;102067.44;4941359;28;19925;-67
2023/06/07 07:18:57;;;;;;;;;;;;;;;15.94;64.90;102061.91;4941016;28;19922;-67
2023/06/07 07:21:22;;;;;;;;;;;;;;;15.98;65.09;102054.34;4940496;28;19934;-67
2023/06/07 07:23:47;;;;;;;;;;;;;;;16.02;65.14;102055.66;4938483;28;20328;-68
2023/06/07 07:26:12;;;;;;;;;;;;;;;16.05;65.18;102066.00;4933351;28;19922;-68
2023/06/07 07:28:37;;;;;;;;;;;;;;;16.09;65.01;102068.16;4937915;29;19923;-67
2023/06/07 07:31:02;;;;;;;;;;;;;;;16.15;65.18;102074.66;4945085;28;20482;-67
2023/06/07 07:33:28;;;;;;;;;;;;;;;16.20;64.97;102071.47;4932827;28;19977;-68
2023/06/07 07:35:53;;;;;;;;;;;;;;;16.26;65.10;102073.44;4937367;28;19918;-68
2023/06/07 07:38:18;;;;;;;;;;;;;;;16.32;64.99;102070.03;4942230;28;19919;-68
2023/06/07 07:40:47;;;;;;;;;;;;;;;16.37;64.75;102064.97;4948408;28;20304;-68
2023/06/07 07:43:12;;;;;;;;;;;;;;;16.42;64.75;102066.09;4937320;28;20556;-67
2023/06/07 07:45:37;;;;;;;;;;;;;;;16.50;64.51;102069.75;4934358;28;19919;-68
2023/06/07 07:48:03;;;;;;;;;;;;;;;16.52;63.95;102073.06;4940879;28;20390;-67
2023/06/07 07:50:28;;;;;;;;;;;;;;;16.59;63.89;102065.97;4940961;28;19918;-68
2023/06/07 07:52:54;;;;;;;;;;;;;;;16.66;64.27;102057.06;4942375;28;19922;-68
2023/06/07 07:55:21;;;;;;;;;;;;;;;16.73;63.95;102065.19;4941092;28;20582;-68
2023/06/07 07:57:46;;;;;;;;;;;;;;;16.79;63.67;102069.88;4938126;28;19919;-66
2023/06/07 08:00:12;;;;;;;;;;;;;;;16.83;63.11;102071.16;4941279;28;19918;-68
2023/06/07 08:02:37;;;;;;;;;;;;;;;16.88;63.37;102074.13;4935219;28;20013;-68
2023/06/07 08:05:03;;;;;;;;;;;;;;;16.93;62.84;102071.72;4947237;28;19915;-68
2023/06/07 08:07:28;;;;;;;;;;;;;;;16.94;62.63;102076.09;4936191;28;20307;-67
2023/06/07 08:09:53;;;;;;;;;;;;;;;16.98;62.70;102071.19;4944533;28;19919;-69
2023/06/07 08:12:19;;;;;;;;;;;;;;;16.98;62.33;102077.38;4941912;28;19914;-67
2023/06/07 08:14:44;;;;;;;;;;;;;;;16.99;62.15;102073.69;4938902;28;19914;-68
2023/06/07 08:17:09;;;;;;;;;;;;;;;16.97;61.93;102073.03;4948271;28;20308;-67
2023/06/07 08:19:34;;;;;;;;;;;;;;;17.01;61.66;102070.81;4945028;28;19925;-67
2023/06/07 08:21:59;;;;;;;;;;;;;;;17.07;61.89;102066.59;4941635;28;19918;-67
2023/06/07 08:24:25;;;;;;;;;;;;;;;17.20;61.92;102069.47;4942059;28;19923;-66
2023/06/07 08:26:50;;;;;;;;;;;;;;;17.34;61.95;102064.06;4940497;28;20368;-67
2023/06/07 08:29:16;;;;;;;;;;;;;;;17.50;61.91;102062.25;4936365;28;19950;-67
2023/06/07 08:31:43;;;;;;;;;;;;;;;17.62;61.40;102056.19;4931524;28;19919;-66
2023/06/07 08:34:08;;;;;;;;;;;;;;;17.82;61.39;102059.16;4939877;28;21383;-67
2023/06/07 08:36:33;;;;;;;;;;;;;;;17.93;60.34;102060.56;4942963;28;19923;-67
2023/06/07 08:38:58;;;;;;;;;;;;;;;18.08;60.40;102071.25;4941687;28;19933;-68
2023/06/07 08:41:23;;;;;;;;;;;;;;;18.26;60.14;102072.50;4938607;28;20012;-67
2023/06/07 08:43:49;;;;;;;;;;;;;;;18.42;59.54;102073.25;4940880;28;19929;-68
2023/06/07 08:46:15;;;;;;;;;;;;;;;18.52;59.56;102073.78;4937927;28;19915;-68
2023/06/07 08:48:41;;;;;;;;;;;;;;;18.67;59.08;102071.88;4943422;28;19997;-67
2023/06/07 08:51:07;;;;;;;;;;;;;;;18.83;58.79;102070.78;4938589;28;20022;-67
2023/06/07 08:53:47;;;;;;;;;;;;;;;18.97;59.00;102079.78;4942250;28;19995;-67
2023/06/07 08:56:13;;;;;;;;;;;;;;;19.14;58.21;102063.13;4932517;28;20367;-69
2023/06/07 08:58:38;;;;;;;;;;;;;;;19.29;58.00;102071.06;4943778;28;20389;-68
2023/06/07 09:01:03;;;;;;;;;;;;;;;19.33;57.49;102069.66;4937099;28;19918;-68
2023/06/07 09:03:29;;;;;;;;;;;;;;;19.27;57.54;102066.91;4934521;28;20400;-69
2023/06/07 09:05:55;;;;;;;;;;;;;;;19.26;57.65;102065.25;4935154;28;19961;-69
2023/06/07 09:08:20;;;;;;;;;;;;;;;19.22;57.38;102054.06;4943906;28;20399;-68
2023/06/07 09:10:47;;;;;;;;;;;;;;;19.18;57.79;102060.88;4936425;28;21284;-69
2023/06/07 09:13:16;;;;;;;;;;;;;;;19.16;57.40;102062.94;4941580;28;19920;-67
2023/06/07 09:15:43;;;;;;;;;;;;;;;19.25;57.79;102064.44;4943017;28;20006;-68
2023/06/07 09:18:08;;;;;;;;;;;;;;;19.37;57.73;102072.78;4933667;28;19919;-69
2023/06/07 09:20:33;;;;;;;;;;;;;;;19.45;57.91;102072.63;4940422;28;19925;-69
2023/06/07 09:23:02;;;;;;;;;;;;;;;19.55;57.43;102069.59;4935457;28;19918;-69
2023/06/07 09:25:28;;;;;;;;;;;;;;;19.57;57.18;102068.38;4938904;28;20489;-68
2023/06/07 09:27:54;;;;;;;;;;;;;;;19.54;56.94;102067.94;4938358;28;19949;-67
2023/06/07 09:30:19;;;;;;;;;;;;;;;19.50;56.78;102072.88;4936236;28;19943;-69
2023/06/07 09:32:45;;;;;;;;;;;;;;;19.49;56.97;102072.03;4944071;28;19922;-69
2023/06/07 09:35:14;;;;;;;;;;;;;;;19.59;56.92;102065.47;4937406;28;19921;-68
2023/06/07 09:37:43;;;;;;;;;;;;;;;19.71;56.96;102070.09;4933607;28;19919;-69
2023/06/07 09:40:09;;;;;;;;;;;;;;;19.68;56.76;102070.50;4941990;28;19926;-66
2023/06/07 09:42:34;;;;;;;;;;;;;;;19.71;56.57;102069.28;4951531;28;19915;-66
2023/06/07 09:45:08;;;;;;;;;;;;;;;19.76;56.23;102072.19;4939386;28;19918;-68
2023/06/07 09:47:34;;;;;;;;;;;;;;;19.82;56.14;102070.56;4940838;28;20507;-68
2023/06/07 09:50:06;;;;;;;;;;;;;;;19.86;56.11;102066.41;4937814;28;20551;-67
2023/06/07 09:52:32;;;;;;;;;;;;;;;19.86;55.87;102066.41;4948360;28;20520;-68
2023/06/07 09:54:57;;;;;;;;;;;;;;;19.84;55.93;102066.63;4943739;28;19919;-68
2023/06/07 09:57:25;;;;;;;;;;;;;;;19.88;56.12;102058.94;4939503;28;20458;-68
2023/06/07 10:00:16;;;;;;;;;;;;;;;19.90;56.14;102046.94;4936454;28;19915;-66
2023/06/07 10:02:42;;;;;;;;;;;;;;;20.08;55.67;102052.59;4942190;28;19918;-68
2023/06/07 10:05:07;;;;;;;;;;;;;;;20.16;55.77;102053.44;4941845;28;19914;-68
2023/06/07 10:07:38;;;;;;;;;;;;;;;20.21;55.41;102061.75;4946954;28;19918;-67
2023/06/07 10:10:05;;;;;;;;;;;;;;;20.24;55.08;102056.78;4939720;28;19919;-67
2023/06/07 10:12:31;;;;;;;;;;;;;;;20.30;55.29;102055.13;4934000;28;20380;-68
2023/06/07 10:15:01;;;;;;;;;;;;;;;20.41;55.14;102051.84;4943948;28;19919;-68
2023/06/07 10:17:33;;;;;;;;;;;;;;;20.47;55.01;102053.72;4933403;28;19989;-69
2023/06/07 10:19:59;;;;;;;;;;;;;;;20.55;54.81;102047.31;4946032;28;20001;-69
2023/06/07 10:22:27;;;;;;;;;;;;;;;20.63;54.65;102053.31;4938440;28;20011;-69
2023/06/07 10:25:04;;;;;;;;;;;;;;;20.69;54.39;102051.66;4937231;28;19926;-68
2023/06/07 10:27:35;;;;;;;;;;;;;;;20.80;54.52;102050.19;4938963;28;19926;-68
2023/06/07 10:30:09;;;;;;;;;;;;;;;21.02;54.50;102062.44;4942415;28;19914;-68
2023/06/07 10:32:36;;;;;;;;;;;;;;;21.24;54.30;102044.13;4944607;28;19922;-68
2023/06/07 10:35:02;;;;;;;;;;;;;;;21.46;53.86;102040.13;4948431;28;19930;-69
2023/06/07 10:37:33;;;;;;;;;;;;;;;21.64;53.11;102037.53;4946548;28;19981;-69
2023/06/07 10:40:00;;;;;;;;;;;;;;;21.78;53.14;102037.50;4939437;28;20006;-68
2023/06/07 10:42:25;;;;;;;;;;;;;;;21.88;52.49;102048.66;4940283;28;19919;-67
2023/06/07 10:44:51;;;;;;;;;;;;;;;21.95;52.27;102044.06;4936179;28;19961;-69
2023/06/07 10:47:22;;;;;;;;;;;;;;;22.01;52.22;102040.50;4939268;28;19923;-67
2023/06/07 10:49:47;;;;;;;;;;;;;;;22.03;52.25;102041.13;4932576;28;19921;-70
2023/06/07 10:52:15;;;;;;;;;;;;;;;21.98;52.02;102043.66;4942507;28;20012;-68
2023/06/07 10:54:41;;;;;;;;;;;;;;;21.96;51.51;102037.59;4940203;28;19918;-68
2023/06/07 10:57:06;;;;;;;;;;;;;;;21.96;50.74;102040.31;4937480;28;20685;-68
2023/06/07 10:59:32;;;;;;;;;;;;;;;21.90;50.73;102035.75;4940335;28;20464;-68
2023/06/07 11:02:16;;;;;;;;;;;;;;;21.84;51.21;102036.63;4943497;28;19919;-68
2023/06/07 11:04:51;;;;;;;;;;;;;;;21.75;51.24;102027.94;4937600;28;19914;-68
2023/06/07 11:07:32;;;;;;;;;;;;;;;21.78;51.08;102029.38;4939600;28;19935;-68
2023/06/07 11:10:13;;;;;;;;;;;;;;;21.80;50.29;102024.59;4941270;28;19926;-69
2023/06/07 11:12:43;;;;;;;;;;;;;;;21.76;50.13;102021.50;4939257;28;20377;-69
2023/06/07 11:15:20;;;;;;;;;;;;;;;21.72;50.03;102019.44;4942392;28;19919;-69
2023/06/07 11:18:05;;;;;;;;;;;;;;;21.77;50.54;102023.16;4943683;28;19978;-69
2023/06/07 11:20:39;;;;;;;;;;;;;;;21.82;50.46;102026.03;4942161;28;19936;-69
2023/06/07 11:23:21;;;;;;;;;;;;;;;21.86;50.29;102023.72;4936286;28;19918;-69
2023/06/07 11:25:46;;;;;;;;;;;;;;;21.84;50.77;102017.69;4936081;28;19957;-69
2023/06/07 11:28:12;;;;;;;;;;;;;;;21.86;50.53;102015.59;4936412;28;20090;-67
2023/06/07 11:30:38;;;;;;;;;;;;;;;21.87;50.85;102012.69;4939571;28;19925;-70
2023/06/07 11:33:03;;;;;;;;;;;;;;;21.90;50.78;102016.81;4949113;28;19993;-68
2023/06/07 11:35:30;;;;;;;;;;;;;;;21.94;50.52;102009.94;4931610;28;19950;-69
2023/06/07 11:37:55;;;;;;;;;;;;;;;21.99;50.61;102012.00;4939531;28;19923;-69
2023/06/07 11:40:21;;;;;;;;;;;;;;;22.07;50.51;102000.97;4938245;28;21858;-69
2023/06/07 11:42:46;;;;;;;;;;;;;;;22.13;50.53;102005.47;4939071;28;19919;-68
2023/06/07 11:45:12;;;;;;;;;;;;;;;22.16;50.52;102007.75;4932131;28;19915;-69
2023/06/07 11:47:38;;;;;;;;;;;;;;;22.17;50.42;101995.88;4933339;28;19973;-69
2023/06/07 11:50:03;;;;;;;;;;;;;;;22.22;50.65;101998.75;4932115;28;19915;-68
2023/06/07 11:52:28;;;;;;;;;;;;;;;22.29;50.69;101991.44;4932312;28;20013;-69
2023/06/07 11:54:53;;;;;;;;;;;;;;;22.37;50.96;101998.44;4943855;28;19925;-69
2023/06/07 11:57:19;;;;;;;;;;;;;;;22.42;50.77;101985.91;4938336;28;19973;-69
2023/06/07 11:59:44;;;;;;;;;;;;;;;22.54;50.95;101997.66;4941473;28;20562;-69
2023/06/07 12:02:11;;;;;;;;;;;;;;;22.67;50.72;102002.13;4938577;28;20604;-70
2023/06/07 12:04:37;;;;;;;;;;;;;;;22.77;50.76;101999.75;4939788;28;19926;-68
2023/06/07 12:07:18;;;;;;;;;;;;;;;22.92;50.38;101998.59;4940758;28;19918;-69
2023/06/07 12:09:43;;;;;;;;;;;;;;;23.06;49.84;102002.81;4935885;28;19926;-69
2023/06/07 12:12:14;;;;;;;;;;;;;;;23.17;49.75;101999.38;4942138;28;19915;-69
2023/06/07 12:14:40;;;;;;;;;;;;;;;23.30;49.04;102001.91;4939181;28;19915;-69
2023/06/07 12:17:05;;;;;;;;;;;;;;;23.39;48.47;101997.00;4931564;28;20087;-69
2023/06/07 12:19:30;;;;;;;;;;;;;;;23.56;48.33;101995.38;4937121;28;20423;-69
2023/06/07 12:22:03;;;;;;;;;;;;;;;23.67;47.64;101994.59;4942541;28;19922;-69
2023/06/07 12:24:28;;;;;;;;;;;;;;;23.82;47.49;101987.94;4943680;28;20345;-69
2023/06/07 12:26:56;;;;;;;;;;;;;;;24.02;47.32;101988.47;4931924;28;20377;-69
2023/06/07 12:29:27;;;;;;;;;;;;;;;24.24;47.51;101981.41;4932325;28;19915;-69
2023/06/07 12:31:55;;;;;;;;;;;;;;;24.39;46.22;101983.72;4931884;28;20009;-69
2023/06/07 12:34:20;;;;;;;;;;;;;;;24.49;45.34;101989.41;4939462;28;19915;-69
2023/06/07 12:36:47;;;;;;;;;;;;;;;24.52;44.90;101988.09;4949679;28;20403;-67
2023/06/07 12:39:13;;;;;;;;;;;;;;;24.62;44.82;101986.47;4931827;28;19923;-67
2023/06/07 12:41:39;;;;;;;;;;;;;;;24.78;44.69;101987.63;4938064;28;19935;-67
2023/06/07 12:44:06;;;;;;;;;;;;;;;24.94;44.71;101988.81;4942213;28;19925;-67
2023/06/07 12:46:32;;;;;;;;;;;;;;;25.11;44.46;101969.88;4941728;28;19973;-68
2023/06/07 12:48:57;;;;;;;;;;;;;;;25.37;44.72;101966.63;4939409;28;20452;-67
2023/06/07 12:51:23;;;;;;;;;;;;;;;25.56;43.86;101967.28;4938274;28;20428;-68
2023/06/07 12:53:48;;;;;;;;;;;;;;;25.64;43.40;101967.69;4939075;28;19938;-68